Time;durP1;ratioP1;P1;durP2;ratioP2;P2;SDS_P1;SDS_P2;PMS_P1;PMS_P2;Temp;Humidity;BMP_temperature;BMP_pressure;BME280_temperature;BME280_humidity;BME280_pressure;Samples;Min_cycle;Max_cycle;Signal;HPM_P1;HPM_P2
2021/04/30 00:01:28;;;;;;;8.83;3.65;;;;;;;10.32;42.75;100111.83;1704170;81;21157;-76
2021/04/30 00:03:55;;;;;;;10.35;4.00;;;;;;;10.33;42.50;100096.52;1701341;83;21291;-77
2021/04/30 00:06:23;;;;;;;10.20;3.90;;;;;;;10.38;43.04;100104.80;1731525;81;21181;-70
2021/04/30 00:08:51;;;;;;;8.45;3.50;;;;;;;10.42;42.64;100110.08;1731830;82;21148;-73
2021/04/30 00:11:19;;;;;;;11.93;4.28;;;;;;;10.45;42.33;100104.08;1727409;81;21181;-75
2021/04/30 00:13:47;;;;;;;17.00;4.47;;;;;;;10.47;42.21;100101.95;1738312;81;21150;-74
2021/04/30 00:16:15;;;;;;;14.65;4.25;;;;;;;10.51;41.70;100093.52;1741847;81;21197;-74
2021/04/30 00:18:42;;;;;;;16.48;5.10;;;;;;;10.56;41.96;100092.21;1734630;81;21224;-73
2021/04/30 00:21:10;;;;;;;12.97;4.50;;;;;;;10.57;42.57;100100.72;1730626;81;21639;-70
2021/04/30 00:23:38;;;;;;;12.37;3.90;;;;;;;10.59;42.35;100097.19;1732463;82;21862;-73
2021/04/30 00:26:07;;;;;;;14.15;4.67;;;;;;;10.57;42.26;100095.25;1736842;81;21170;-70
2021/04/30 00:28:35;;;;;;;10.40;4.15;;;;;;;10.57;42.84;100096.62;1728710;83;21148;-77
2021/04/30 00:31:03;;;;;;;13.72;4.25;;;;;;;10.56;42.88;100099.05;1732261;81;21233;-77
2021/04/30 00:33:30;;;;;;;16.27;4.15;;;;;;;10.54;42.58;100098.48;1760490;81;21183;-77
2021/04/30 00:35:58;;;;;;;16.12;4.53;;;;;;;10.52;43.20;100096.55;1761777;81;21131;-78
2021/04/30 00:38:26;;;;;;;16.00;4.20;;;;;;;10.50;42.75;100087.73;1742167;81;21149;-71
2021/04/30 00:40:55;;;;;;;12.95;5.03;;;;;;;10.49;43.33;100087.47;1744793;81;21139;-78
2021/04/30 00:43:23;;;;;;;12.10;4.00;;;;;;;10.48;42.69;100085.80;1727017;81;21177;-78
2021/04/30 00:45:52;;;;;;;15.32;4.35;;;;;;;10.47;42.79;100086.06;1730139;83;21622;-78
2021/04/30 00:48:21;;;;;;;11.68;4.15;;;;;;;10.45;43.01;100084.93;1742352;81;21163;-69
2021/04/30 00:50:50;;;;;;;9.48;3.95;;;;;;;10.44;42.95;100082.45;1725166;82;21223;-76
2021/04/30 00:53:18;;;;;;;15.78;4.00;;;;;;;10.40;42.91;100078.02;1729519;81;21181;-70
2021/04/30 00:55:46;;;;;;;14.55;4.35;;;;;;;10.39;43.41;100083.22;1694926;84;21174;-71
2021/04/30 00:58:14;;;;;;;11.50;4.03;;;;;;;10.36;43.47;100085.08;1735579;81;21189;-76
2021/04/30 01:00:42;;;;;;;10.80;4.08;;;;;;;10.32;43.42;100079.84;1758892;81;21626;-76
2021/04/30 01:03:10;;;;;;;13.70;4.33;;;;;;;10.30;44.12;100073.77;1752808;81;21636;-69
2021/04/30 01:05:38;;;;;;;13.30;4.40;;;;;;;10.27;43.96;100076.19;1727184;81;21192;-75
2021/04/30 01:08:06;;;;;;;11.78;4.37;;;;;;;10.25;44.04;100067.38;1753706;80;21192;-70
2021/04/30 01:10:34;;;;;;;9.13;3.90;;;;;;;10.23;44.00;100075.02;1721857;83;21208;-79
2021/04/30 01:13:02;;;;;;;;;;;;;;;10.19;44.22;100072.78;1753250;82;21227;-75
2021/04/30 01:15:30;;;;;;;14.95;4.58;;;;;;;10.16;44.27;100067.00;1737743;80;20203;-71
2021/04/30 01:18:01;;;;;;;11.03;3.67;;;;;;;10.11;44.50;100063.63;1791315;80;21175;-71
2021/04/30 01:20:29;;;;;;;12.45;4.22;;;;;;;10.07;44.56;100058.34;1769717;80;21302;-77
2021/04/30 01:22:57;;;;;;;13.13;3.98;;;;;;;10.04;44.94;100066.23;1727183;83;21160;-70
2021/04/30 01:25:28;;;;;;;9.47;3.63;;;;;;;9.99;45.07;100063.42;1711136;82;21206;-68
2021/04/30 01:27:56;;;;;;;10.88;3.87;;;;;;;9.94;45.27;100061.41;1751891;82;21362;-69
2021/04/30 01:30:28;;;;;;;9.23;4.08;;;;;;;9.90;45.24;100060.27;1722049;81;21284;-77
2021/04/30 01:32:55;;;;;;;9.95;3.80;;;;;;;9.86;45.71;100058.28;1725251;82;21188;-77
2021/04/30 01:35:34;;;;;;;10.50;4.30;;;;;;;9.80;45.58;100059.27;1727875;81;21224;-78
2021/04/30 01:38:03;;;;;;;9.50;4.50;;;;;;;9.77;45.74;100059.75;1732313;82;21175;-78
2021/04/30 01:40:33;;;;;;;14.85;4.33;;;;;;;9.72;45.76;100059.67;1726413;81;21152;-70
2021/04/30 01:43:08;;;;;;;13.13;4.42;;;;;;;9.67;46.10;100059.58;1762018;81;21139;-76
2021/04/30 01:45:51;;;;;;;12.13;4.17;;;;;;;9.64;46.79;100062.27;1752916;81;21221;-76
2021/04/30 01:48:14;;;;;;;10.08;3.83;;;;;;;9.61;46.38;100056.49;1738733;82;21479;-74
2021/04/30 01:50:44;;;;;;;13.20;4.62;;;;;;;9.56;46.49;100050.41;1754970;81;21233;-74
2021/04/30 01:53:15;;;;;;;;;;;;;;;9.51;47.98;100058.52;1734790;82;21177;-69
2021/04/30 01:55:43;;;;;;;10.08;4.40;;;;;;;9.46;48.01;100061.16;1682053;82;20237;-71
2021/04/30 01:58:11;;;;;;;10.85;4.45;;;;;;;9.40;47.75;100060.23;1749928;81;21260;-70
2021/04/30 02:00:39;;;;;;;12.50;4.53;;;;;;;9.36;47.59;100046.75;1731973;82;21148;-71
2021/04/30 02:03:07;;;;;;;10.82;4.72;;;;;;;9.33;47.63;100051.37;1766934;80;21192;-73
2021/04/30 02:05:34;;;;;;;8.83;4.23;;;;;;;9.31;47.69;100051.32;1728604;83;21227;-69
2021/04/30 02:08:08;;;;;;;10.30;4.30;;;;;;;9.27;48.00;100054.23;1726417;82;21193;-72
2021/04/30 02:10:37;;;;;;;11.68;4.58;;;;;;;9.23;48.23;100051.18;1725702;83;21169;-74
2021/04/30 02:13:06;;;;;;;12.93;5.20;;;;;;;9.19;48.58;100047.27;1728340;83;21211;-69
2021/04/30 02:15:40;;;;;;;17.02;5.15;;;;;;;9.17;48.58;100052.67;1726540;82;21582;-76
2021/04/30 02:18:08;;;;;;;14.90;4.28;;;;;;;9.14;49.64;100060.82;1723633;82;21125;-68
2021/04/30 02:20:36;;;;;;;15.27;4.47;;;;;;;9.12;49.62;100061.61;1728423;82;21553;-78
2021/04/30 02:23:04;;;;;;;20.57;5.00;;;;;;;9.09;49.12;100055.79;1729145;82;21208;-74
2021/04/30 02:25:32;;;;;;;26.87;5.60;;;;;;;9.07;49.33;100063.40;1727251;82;21160;-73
2021/04/30 02:28:00;;;;;;;16.52;5.20;;;;;;;9.04;50.08;100066.61;1725571;82;21157;-75
2021/04/30 02:30:29;;;;;;;;;;;;;;;9.02;49.96;100062.77;1727907;83;21199;-69
2021/04/30 02:32:56;;;;;;;;;;;;;;;9.01;50.12;100058.90;1732654;82;20238;-70
2021/04/30 02:35:31;;;;;;;13.35;5.10;;;;;;;8.97;50.44;100054.48;1718672;83;20290;-70
2021/04/30 02:37:58;;;;;;;17.35;5.40;;;;;;;8.94;50.77;100060.42;1732377;83;21135;-71
2021/04/30 02:40:28;;;;;;;12.53;5.22;;;;;;;8.91;50.22;100058.17;1731787;82;21156;-70
2021/04/30 02:43:02;;;;;;;17.55;5.67;;;;;;;8.88;50.33;100055.92;1757893;81;21156;-76
2021/04/30 02:45:30;;;;;;;17.92;5.62;;;;;;;8.88;50.33;100055.92;1679130;83;21192;-69
2021/04/30 02:47:58;;;;;;;16.48;6.20;;;;;;;8.88;50.30;100054.55;1743990;81;21593;-71
2021/04/30 02:50:29;;;;;;;13.38;5.40;;;;;;;8.86;50.26;100056.70;1743228;81;21161;-70
2021/04/30 02:52:58;;;;;;;17.98;6.12;;;;;;;8.85;50.40;100059.96;1732035;82;21346;-75
2021/04/30 02:55:26;;;;;;;17.30;6.40;;;;;;;8.85;50.88;100067.34;1722982;81;21572;-70
2021/04/30 02:57:57;;;;;;;15.60;5.62;;;;;;;8.85;51.23;100071.44;1731852;83;21654;-73
2021/04/30 03:00:26;;;;;;;14.53;6.22;;;;;;;8.85;51.20;100068.15;1716221;82;21293;-76
2021/04/30 03:02:54;;;;;;;;;;;;;;;8.85;51.20;100068.15;1699341;84;21746;-69
2021/04/30 03:05:22;;;;;;;17.42;5.87;;;;;;;8.88;51.39;100069.56;1731881;81;20195;-75
2021/04/30 03:07:50;;;;;;;17.60;6.42;;;;;;;8.89;51.67;100076.17;1756778;81;21132;-70
2021/04/30 03:10:18;;;;;;;17.20;6.50;;;;;;;8.89;51.63;100073.44;1750316;81;21597;-76
2021/04/30 03:12:46;;;;;;;13.68;5.80;;;;;;;8.93;51.99;100072.40;1731909;82;21173;-78
2021/04/30 03:15:15;;;;;;;20.70;6.55;;;;;;;8.97;52.14;100082.31;1717320;81;21156;-69
2021/04/30 03:17:43;;;;;;;;;;;;;;;8.99;52.18;100078.27;1744252;82;21165;-69
2021/04/30 03:20:11;;;;;;;16.33;6.33;;;;;;;9.02;52.25;100079.16;1746163;81;20265;-69
2021/04/30 03:22:39;;;;;;;14.20;6.62;;;;;;;9.06;52.25;100077.58;1723347;82;21549;-70
2021/04/30 03:25:09;;;;;;;19.23;6.40;;;;;;;9.11;51.93;100079.05;1727371;83;21171;-75
2021/04/30 03:27:36;;;;;;;16.48;6.62;;;;;;;9.18;52.08;100083.85;1731496;81;21278;-77
2021/04/30 03:30:06;;;;;;;16.37;6.63;;;;;;;9.25;52.35;100080.96;1743952;82;21627;-75
2021/04/30 03:32:35;;;;;;;19.07;6.55;;;;;;;9.31;52.24;100071.24;1724224;82;21160;-69
2021/04/30 03:35:05;;;;;;;16.25;5.62;;;;;;;9.38;52.20;100082.04;1761673;81;21203;-76
2021/04/30 03:37:33;;;;;;;21.10;6.50;;;;;;;9.44;52.51;100076.94;1759515;81;21193;-78
2021/04/30 03:40:01;;;;;;;24.10;7.22;;;;;;;9.53;52.23;100088.61;1753474;81;21209;-78
2021/04/30 03:42:31;;;;;;;21.10;6.75;;;;;;;9.61;52.36;100090.65;1707578;82;21174;-75
2021/04/30 03:44:59;;;;;;;16.00;6.87;;;;;;;9.69;52.21;100084.78;1745741;81;21196;-71
2021/04/30 03:47:27;;;;;;;15.83;6.05;;;;;;;9.77;52.21;100091.19;1724700;81;21179;-69
2021/04/30 03:49:55;;;;;;;20.85;6.83;;;;;;;9.83;52.27;100094.31;1727547;82;21156;-76
2021/04/30 03:52:23;;;;;;;15.28;6.78;;;;;;;9.88;52.37;100092.50;1729500;81;21184;-75
2021/04/30 03:54:52;;;;;;;;;;;;;;;9.94;52.11;100090.68;1720985;83;21189;-76
2021/04/30 03:57:20;;;;;;;16.02;7.00;;;;;;;9.99;52.02;100089.40;1688330;85;20202;-74
2021/04/30 03:59:47;;;;;;;16.17;7.35;;;;;;;10.04;52.35;100088.11;1740230;81;21169;-75
2021/04/30 04:02:15;;;;;;;15.63;6.50;;;;;;;10.10;52.53;100091.20;1711027;84;21212;-75
2021/04/30 04:04:43;;;;;;;20.92;8.28;;;;;;;10.15;52.54;100085.84;1713591;82;21871;-76
2021/04/30 04:07:11;;;;;;;25.27;7.60;;;;;;;10.22;52.48;100095.27;1714491;83;21171;-76
2021/04/30 04:09:39;;;;;;;19.20;6.70;;;;;;;10.26;52.80;100086.30;1732537;81;21185;-75
2021/04/30 04:12:08;;;;;;;21.30;7.63;;;;;;;10.32;52.25;100081.20;1715825;83;21603;-70
2021/04/30 04:14:36;;;;;;;14.73;7.15;;;;;;;10.39;52.50;100082.38;1742237;81;21367;-75
2021/04/30 04:17:04;;;;;;;24.35;7.80;;;;;;;10.45;52.24;100086.30;1710815;83;21165;-77
2021/04/30 04:19:34;;;;;;;19.57;7.53;;;;;;;10.50;52.30;100080.89;1711910;81;21159;-76
2021/04/30 04:22:02;;;;;;;19.85;6.65;;;;;;;10.55;52.30;100085.07;1715600;82;21196;-70
2021/04/30 04:24:30;;;;;;;;;;;;;;;10.60;52.20;100087.87;1688679;82;21189;-68
2021/04/30 04:26:58;;;;;;;13.30;6.58;;;;;;;10.64;52.44;100086.31;1745888;82;20318;-76
2021/04/30 04:29:26;;;;;;;19.57;7.15;;;;;;;10.69;52.58;100087.75;1747882;81;21132;-76
2021/04/30 04:31:54;;;;;;;21.17;7.97;;;;;;;10.73;52.91;100083.41;1750496;82;21223;-76
2021/04/30 04:34:22;;;;;;;16.07;7.40;;;;;;;10.77;52.66;100084.58;1752766;82;21604;-76
2021/04/30 04:36:50;;;;;;;27.40;7.75;;;;;;;10.80;52.60;100087.34;1703892;82;21165;-77
2021/04/30 04:39:19;;;;;;;26.57;8.50;;;;;;;10.82;53.05;100090.12;1732683;81;21165;-75
2021/04/30 04:41:47;;;;;;;20.62;7.15;;;;;;;10.82;52.76;100086.02;1708353;82;21250;-76
2021/04/30 04:44:16;;;;;;;28.00;8.55;;;;;;;10.84;52.79;100085.21;1737650;82;21714;-69
2021/04/30 04:46:44;;;;;;;25.23;9.48;;;;;;;10.86;52.68;100089.05;1726413;82;21184;-69
2021/04/30 04:49:12;;;;;;;49.48;20.90;;;;;;;10.88;52.91;100094.29;1724534;82;21152;-70
2021/04/30 04:51:41;;;;;;;27.73;9.45;;;;;;;10.90;52.89;100094.86;1723429;82;21211;-70
2021/04/30 04:54:09;;;;;;;35.45;9.95;;;;;;;10.91;53.27;100092.39;1708009;84;21216;-69
2021/04/30 04:56:38;;;;;;;23.75;8.23;;;;;;;10.91;54.06;100097.86;1699063;82;21180;-77
2021/04/30 04:59:06;;;;;;;29.18;7.90;;;;;;;10.91;53.60;100095.95;1737496;82;21132;-78
2021/04/30 05:01:34;;;;;;;23.25;7.92;;;;;;;10.94;53.80;100091.35;1751582;81;21154;-74
2021/04/30 05:04:03;;;;;;;18.07;8.15;;;;;;;10.96;53.47;100090.55;1762010;81;21115;-69
2021/04/30 05:06:31;;;;;;;20.23;7.70;;;;;;;10.97;53.55;100091.38;1759651;81;21139;-77
2021/04/30 05:09:01;;;;;;;26.45;9.25;;;;;;;11.03;53.93;100102.70;1725181;83;21412;-71
2021/04/30 05:11:29;;;;;;;36.85;9.70;;;;;;;11.05;53.97;100103.27;1740468;81;21309;-73
2021/04/30 05:13:57;;;;;;;22.55;8.18;;;;;;;11.10;53.94;100100.59;1750609;81;21616;-72
2021/04/30 05:16:25;;;;;;;23.67;8.98;;;;;;;11.11;53.99;100097.58;1734657;82;21294;-70
2021/04/30 05:18:52;;;;;;;22.67;9.08;;;;;;;11.14;53.85;100099.81;1752666;81;21152;-76
2021/04/30 05:21:21;;;;;;;30.20;9.45;;;;;;;11.17;54.10;100097.10;1758904;81;21159;-76
2021/04/30 05:23:49;;;;;;;28.25;9.80;;;;;;;11.22;54.38;100104.01;1760364;81;21139;-74
2021/04/30 05:26:17;;;;;;;44.48;11.00;;;;;;;11.27;54.62;100098.59;1720253;83;21706;-76
2021/04/30 05:28:45;;;;;;;30.02;9.08;;;;;;;11.33;54.55;100105.23;1727498;82;21185;-75
2021/04/30 05:31:14;;;;;;;28.05;9.90;;;;;;;11.40;54.61;100103.67;1723101;83;21692;-76
2021/04/30 05:33:42;;;;;;;26.93;9.70;;;;;;;11.48;54.90;100108.70;1715912;83;21593;-68
2021/04/30 05:36:10;;;;;;;23.07;9.25;;;;;;;11.56;54.92;100111.52;1726472;83;21148;-74
2021/04/30 05:38:38;;;;;;;30.25;10.45;;;;;;;11.61;54.47;100115.15;1769319;80;21574;-76
2021/04/30 05:41:06;;;;;;;29.80;9.45;;;;;;;11.67;54.33;100116.84;1755162;81;21602;-74
2021/04/30 05:43:34;;;;;;;26.45;9.95;;;;;;;11.74;54.93;100110.63;1730257;82;21172;-70
2021/04/30 05:46:01;;;;;;;24.02;10.15;;;;;;;11.79;54.56;100105.19;1729111;82;21622;-71
2021/04/30 05:48:31;;;;;;;32.70;10.32;;;;;;;11.84;54.92;100106.61;1728717;82;21227;-70
2021/04/30 05:50:58;;;;;;;34.50;10.00;;;;;;;11.87;54.87;100099.23;1757486;81;21124;-75
2021/04/30 05:53:27;;;;;;;33.97;9.50;;;;;;;11.96;54.97;100105.92;1730740;83;21148;-70
2021/04/30 05:55:55;;;;;;;;;;;;;;;12.03;54.46;100098.83;1744608;81;21196;-72
2021/04/30 05:58:23;;;;;;;29.82;9.55;;;;;;;12.10;54.35;100097.52;1750257;82;20182;-70
2021/04/30 06:00:51;;;;;;;41.05;10.13;;;;;;;12.21;54.58;100100.34;1741930;81;21873;-76
2021/04/30 06:03:19;;;;;;;25.05;9.73;;;;;;;12.30;54.32;100098.21;1750681;82;21164;-70
2021/04/30 06:05:48;;;;;;;20.88;9.18;;;;;;;12.41;54.13;100098.58;1746707;80;21559;-77
2021/04/30 06:08:16;;;;;;;26.50;10.20;;;;;;;12.50;53.95;100103.00;1759281;81;21403;-76
2021/04/30 06:10:45;;;;;;;23.05;9.53;;;;;;;12.59;53.81;100093.20;1732864;81;21139;-70
2021/04/30 06:13:13;;;;;;;30.77;10.93;;;;;;;12.71;53.93;100097.93;1727422;83;21167;-70
2021/04/30 06:15:41;;;;;;;33.53;11.12;;;;;;;12.83;54.07;100095.79;1719872;81;21150;-76
2021/04/30 06:18:10;;;;;;;43.95;14.50;;;;;;;12.94;53.22;100098.05;1737045;82;21240;-71
2021/04/30 06:20:38;;;;;;;27.73;12.23;;;;;;;13.01;53.92;100093.95;1736858;81;21224;-75
2021/04/30 06:23:05;;;;;;;30.50;12.18;;;;;;;13.10;53.54;100099.27;1698143;84;21196;-76
2021/04/30 06:25:33;;;;;;;28.62;12.07;;;;;;;13.17;53.34;100094.34;1756492;80;21172;-76
2021/04/30 06:28:01;;;;;;;32.95;12.15;;;;;;;13.25;53.46;100094.37;1735156;82;21164;-74
2021/04/30 06:30:29;;;;;;;51.42;13.98;;;;;;;13.33;53.24;100099.34;1704762;82;22039;-71
2021/04/30 06:32:57;;;;;;;36.67;12.07;;;;;;;13.42;53.50;100098.25;1733981;82;21164;-71
2021/04/30 06:35:25;;;;;;;33.20;10.50;;;;;;;13.50;53.18;100099.10;1708898;83;21167;-76
2021/04/30 06:37:53;;;;;;;29.37;10.57;;;;;;;13.60;53.18;100099.13;1707685;82;21176;-75
2021/04/30 06:40:21;;;;;;;21.20;10.45;;;;;;;13.68;53.08;100095.84;1734838;82;21278;-77
2021/04/30 06:42:49;;;;;;;45.50;11.57;;;;;;;13.75;52.90;100093.11;1724252;82;21192;-76
2021/04/30 06:45:17;;;;;;;28.10;10.58;;;;;;;13.82;52.53;100090.91;1710497;82;21180;-74
2021/04/30 06:47:45;;;;;;;28.75;10.75;;;;;;;13.89;52.67;100087.87;1706987;82;21178;-69
2021/04/30 06:50:13;;;;;;;23.02;10.43;;;;;;;13.98;52.71;100086.24;1751570;82;21134;-71
2021/04/30 06:52:41;;;;;;;25.72;10.30;;;;;;;14.09;52.32;100089.25;1750376;81;21667;-76
2021/04/30 06:55:09;;;;;;;26.42;9.60;;;;;;;14.20;52.69;100088.16;1724665;81;21259;-78
2021/04/30 06:57:39;;;;;;;26.35;10.63;;;;;;;14.34;51.97;100083.79;1731073;81;21638;-70
2021/04/30 07:00:10;;;;;;;24.57;10.10;;;;;;;14.49;52.09;100089.27;1710756;81;21715;-68
2021/04/30 07:02:39;;;;;;;26.65;13.65;;;;;;;14.66;51.37;100081.23;1730989;83;21126;-76
2021/04/30 07:05:08;;;;;;;23.25;10.03;;;;;;;14.81;50.94;100080.64;1721821;81;21167;-71
2021/04/30 07:07:36;;;;;;;27.07;9.85;;;;;;;14.92;50.72;100079.52;1725098;82;21203;-76
2021/04/30 07:10:05;;;;;;;29.32;15.85;;;;;;;15.10;50.86;100076.69;1719909;82;21172;-77
2021/04/30 07:12:33;;;;;;;;;;;;;;;15.10;50.86;100076.69;1733324;83;21257;-77
2021/04/30 07:15:01;;;;;;;25.20;10.53;;;;;;;15.16;50.49;100065.34;1720969;82;20250;-71
2021/04/30 07:17:29;;;;;;;27.73;10.53;;;;;;;15.24;50.33;100065.30;1728076;83;21313;-71
2021/04/30 07:20:00;;;;;;;27.20;11.73;;;;;;;15.27;49.97;100049.57;1700040;83;21227;-75
2021/04/30 07:22:28;;;;;;;37.17;11.60;;;;;;;15.29;49.88;100055.62;1728375;83;21218;-69
2021/04/30 07:24:56;;;;;;;28.92;11.28;;;;;;;15.32;49.58;100056.98;1727934;82;21188;-77
2021/04/30 07:27:24;;;;;;;26.27;11.30;;;;;;;15.31;50.06;100045.67;1730710;82;21223;-76
2021/04/30 07:29:52;;;;;;;24.72;10.60;;;;;;;15.37;49.89;100044.00;1714522;82;21473;-69
2021/04/30 07:32:20;;;;;;;19.82;9.53;;;;;;;15.43;49.47;100040.66;1717589;83;21213;-69
2021/04/30 07:34:48;;;;;;;27.70;10.00;;;;;;;15.45;49.70;100035.16;1730832;82;21176;-75
2021/04/30 07:37:16;;;;;;;22.73;9.73;;;;;;;15.53;49.82;100033.18;1722316;83;21128;-69
2021/04/30 07:39:44;;;;;;;26.42;10.58;;;;;;;15.63;49.59;100030.34;1729768;82;21163;-76
2021/04/30 07:42:13;;;;;;;32.13;14.63;;;;;;;15.70;49.31;100032.77;1717048;83;21188;-69
2021/04/30 07:44:42;;;;;;;25.85;12.20;;;;;;;15.72;49.38;100028.61;1730096;82;21268;-68
2021/04/30 07:47:11;;;;;;;30.32;11.53;;;;;;;15.72;49.13;100023.09;1724000;82;21226;-75
2021/04/30 07:49:39;;;;;;;28.07;10.23;;;;;;;15.73;49.26;100022.00;1758984;81;21234;-76
2021/04/30 07:52:09;;;;;;;24.80;8.93;;;;;;;15.79;49.40;100011.16;1758840;81;21144;-71
2021/04/30 07:54:38;;;;;;;35.80;9.58;;;;;;;15.89;48.20;100017.98;1774046;80;21132;-69
2021/04/30 07:57:07;;;;;;;21.97;9.23;;;;;;;15.98;48.46;100009.08;1742506;81;21291;-70
2021/04/30 07:59:34;;;;;;;23.65;7.65;;;;;;;16.06;48.52;100010.67;1758767;81;21160;-77
2021/04/30 08:02:05;;;;;;;32.28;10.23;;;;;;;16.12;48.46;100008.11;1757606;81;21168;-71
2021/04/30 08:04:37;;;;;;;13.68;6.55;;;;;;;16.18;48.30;100010.27;1758917;81;21783;-70
2021/04/30 08:07:06;;;;;;;26.48;6.78;;;;;;;16.22;46.54;100007.17;1748457;81;21249;-71
2021/04/30 08:09:35;;;;;;;14.80;6.33;;;;;;;16.27;46.01;99996.08;1758695;81;21143;-76
2021/04/30 08:12:03;;;;;;;18.35;6.45;;;;;;;16.35;45.72;100002.34;1745730;81;21727;-75
2021/04/30 08:14:32;;;;;;;16.15;5.45;;;;;;;16.44;45.50;99993.70;1715410;83;21137;-75
2021/04/30 08:17:00;;;;;;;12.10;5.08;;;;;;;16.56;44.27;99988.62;1757213;81;21152;-76
2021/04/30 08:19:29;;;;;;;18.23;7.58;;;;;;;16.67;44.02;99998.41;1737628;81;21311;-74
2021/04/30 08:21:57;;;;;;;64.27;9.55;;;;;;;16.78;44.55;99992.20;1728286;83;21262;-76
2021/04/30 08:24:25;;;;;;;43.47;15.30;;;;;;;16.86;43.82;99991.00;1725717;82;21589;-78
2021/04/30 08:26:52;;;;;;;47.17;8.15;;;;;;;16.95;42.99;99987.83;1726459;83;21171;-79
2021/04/30 08:29:20;;;;;;;26.70;6.75;;;;;;;17.05;41.94;99988.28;1725224;82;21616;-70
2021/04/30 08:31:48;;;;;;;16.52;7.15;;;;;;;17.12;41.69;99979.88;1727803;82;21254;-70
2021/04/30 08:34:16;;;;;;;21.93;12.03;;;;;;;17.21;41.36;99975.86;1716721;82;21191;-78
2021/04/30 08:36:44;;;;;;;14.95;5.60;;;;;;;17.25;40.62;99971.95;1731537;82;21136;-78
2021/04/30 08:39:13;;;;;;;13.28;5.50;;;;;;;17.29;40.29;99963.30;1731380;81;21130;-70
2021/04/30 08:41:42;;;;;;;13.20;6.47;;;;;;;17.34;40.88;99961.84;1700801;83;21294;-71
2021/04/30 08:44:10;;;;;;;22.40;11.78;;;;;;;17.36;41.09;99956.82;1731156;82;21178;-71
2021/04/30 08:46:38;;;;;;;22.67;10.28;;;;;;;17.38;40.86;99956.78;1716968;83;21144;-78
2021/04/30 08:49:10;;;;;;;17.75;8.20;;;;;;;17.47;40.74;99950.02;1732713;82;21127;-71
2021/04/30 08:51:39;;;;;;;26.25;11.22;;;;;;;17.52;40.48;99949.41;1718044;82;21544;-78
2021/04/30 08:54:08;;;;;;;25.32;12.73;;;;;;;17.59;40.46;99935.17;1732548;82;21124;-70
2021/04/30 08:56:44;;;;;;;29.35;14.58;;;;;;;17.70;40.18;99942.20;1730504;82;21286;-70
2021/04/30 08:59:06;;;;;;;25.65;13.53;;;;;;;17.82;39.09;99935.61;1725190;82;21616;-76
2021/04/30 09:01:34;;;;;;;61.77;29.05;;;;;;;17.94;39.60;99942.86;1728143;81;21261;-76
2021/04/30 09:04:07;;;;;;;;;;;;;;;18.06;40.02;99941.83;1729976;83;21153;-72
2021/04/30 09:06:37;;;;;;;15.28;7.28;;;;;;;18.19;38.91;99935.46;1744877;81;20193;-76
2021/04/30 09:09:09;;;;;;;11.57;4.92;;;;;;;18.25;38.65;99931.48;1761961;81;21135;-70
2021/04/30 09:11:43;;;;;;;15.98;8.58;;;;;;;18.27;38.54;99932.55;1752065;81;21158;-71
2021/04/30 09:14:30;;;;;;;13.95;4.33;;;;;;;18.33;38.66;99925.78;1717608;82;21740;-79
2021/04/30 09:17:15;;;;;;;14.35;4.60;;;;;;;18.47;38.17;99920.29;1720566;82;21176;-77
2021/04/30 09:19:55;;;;;;;7.15;3.65;;;;;;;18.63;38.03;99918.81;1720417;82;21266;-78
2021/04/30 09:22:25;;;;;;;14.70;5.92;;;;;;;18.75;37.80;99906.62;1710281;82;21181;-76
2021/04/30 09:25:03;;;;;;;7.80;3.70;;;;;;;18.83;37.10;99901.17;1716194;82;21147;-77
2021/04/30 09:27:35;;;;;;;30.50;12.20;;;;;;;18.92;37.38;99895.73;1725208;82;21168;-77
2021/04/30 09:30:31;;;;;;;9.80;4.80;;;;;;;18.99;36.95;99896.11;1719186;82;21621;-77
2021/04/30 09:33:14;;;;;;;28.73;14.68;;;;;;;19.05;36.92;99894.05;1715489;82;21198;-76
2021/04/30 09:35:56;;;;;;;25.95;13.58;;;;;;;18.96;36.35;99889.80;1721091;83;21280;-76
2021/04/30 09:38:34;;;;;;;23.42;5.42;;;;;;;18.88;37.12;99886.37;1709822;82;21195;-76
2021/04/30 09:41:08;;;;;;;17.10;9.08;;;;;;;18.97;36.82;99886.70;1707342;82;21184;-75
2021/04/30 09:43:49;;;;;;;32.98;17.48;;;;;;;19.07;36.43;99877.91;1723506;82;21171;-78
2021/04/30 09:46:29;;;;;;;19.17;7.85;;;;;;;19.04;36.68;99880.73;1731498;82;21693;-75
2021/04/30 09:49:07;;;;;;;10.82;4.05;;;;;;;19.01;36.09;99873.03;1715311;82;21142;-78
2021/04/30 09:51:46;;;;;;;11.12;3.40;;;;;;;18.96;35.46;99864.83;1718738;82;21256;-72
2021/04/30 09:54:26;;;;;;;22.77;10.60;;;;;;;18.95;35.71;99863.18;1726384;82;21155;-72
2021/04/30 09:57:22;;;;;;;62.78;26.52;;;;;;;19.01;35.77;99846.13;1726612;83;21143;-68
2021/04/30 10:00:02;;;;;;;38.75;18.95;;;;;;;19.14;36.47;99849.16;1723319;82;21631;-71
2021/04/30 10:02:35;;;;;;;26.05;5.37;;;;;;;19.25;36.64;99838.86;1730147;83;21323;-71
2021/04/30 10:05:17;;;;;;;9.98;3.72;;;;;;;19.38;36.26;99847.72;1737770;80;21105;-72
2021/04/30 10:07:47;;;;;;;28.07;13.45;;;;;;;19.47;35.49;99846.41;1742251;81;21128;-72
2021/04/30 10:10:18;;;;;;;26.25;13.05;;;;;;;19.48;35.58;99840.52;1748020;81;21619;-70
2021/04/30 10:12:47;;;;;;;14.55;4.90;;;;;;;19.42;35.38;99850.70;1738288;81;21580;-76
2021/04/30 10:15:20;;;;;;;22.70;8.50;;;;;;;19.38;35.23;99844.95;1722850;81;21144;-78
2021/04/30 10:17:56;;;;;;;40.30;17.75;;;;;;;19.43;35.37;99843.43;1692706;83;21196;-77
2021/04/30 10:20:24;;;;;;;15.48;6.17;;;;;;;19.46;35.38;99842.80;1723617;82;21618;-71
2021/04/30 10:22:53;;;;;;;12.00;3.40;;;;;;;19.52;35.04;99842.94;1693157;82;21151;-72
2021/04/30 10:25:21;;;;;;;18.60;5.22;;;;;;;19.57;35.32;99837.81;1748590;81;21192;-70
2021/04/30 10:27:54;;;;;;;11.65;3.60;;;;;;;19.64;35.15;99837.61;1749712;82;21164;-73
2021/04/30 10:30:57;;;;;;;19.45;6.87;;;;;;;19.71;34.19;99831.59;1758129;80;21180;-72
2021/04/30 10:33:34;;;;;;;14.58;4.42;;;;;;;19.76;35.25;99823.71;1743657;82;21205;-72
2021/04/30 10:36:15;;;;;;;;;;;;;;;19.83;34.69;99817.95;1749362;81;21128;-70
2021/04/30 10:38:49;;;;;;;16.65;5.53;;;;;;;19.87;34.84;99816.72;1729534;82;20595;-72
2021/04/30 10:41:36;;;;;;;43.08;5.67;;;;;;;19.90;34.37;99818.86;1727245;82;21192;-74
2021/04/30 10:44:25;;;;;;;50.78;19.02;;;;;;;19.94;33.36;99814.28;1720929;83;21187;-71
2021/04/30 10:47:11;;;;;;;12.25;4.22;;;;;;;19.99;34.26;99809.98;1722926;82;21134;-73
2021/04/30 10:49:43;;;;;;;34.55;16.67;;;;;;;20.06;34.09;99808.97;1744923;81;21121;-70
2021/04/30 10:52:22;;;;;;;14.53;7.67;;;;;;;20.06;34.56;99811.74;1725357;82;21165;-72
2021/04/30 10:55:06;;;;;;;18.35;6.90;;;;;;;20.01;34.14;99796.61;1729208;82;21253;-74
2021/04/30 10:57:58;;;;;;;18.77;6.08;;;;;;;20.00;34.12;99792.18;1725173;82;21163;-77
2021/04/30 11:00:39;;;;;;;14.98;4.03;;;;;;;20.01;33.85;99774.38;1724120;82;21207;-71
2021/04/30 11:03:20;;;;;;;19.15;6.67;;;;;;;20.07;34.38;99786.97;1691048;83;21167;-72
2021/04/30 11:06:00;;;;;;;16.77;3.87;;;;;;;20.17;34.17;99786.66;1721977;83;21125;-70
2021/04/30 11:08:55;;;;;;;16.85;6.30;;;;;;;20.26;33.98;99777.23;1721963;82;21120;-70
2021/04/30 11:11:34;;;;;;;11.30;3.60;;;;;;;20.36;33.86;99780.30;1722054;83;21113;-72
2021/04/30 11:14:28;;;;;;;15.13;4.55;;;;;;;20.36;34.28;99773.91;1727403;82;21347;-72
2021/04/30 11:16:57;;;;;;;13.15;4.95;;;;;;;20.39;34.50;99757.38;1722683;83;21156;-72
2021/04/30 11:19:30;;;;;;;20.75;8.08;;;;;;;20.45;34.40;99759.44;1706164;82;21161;-73
2021/04/30 11:22:13;;;;;;;14.25;6.42;;;;;;;20.52;34.58;99757.81;1711493;83;21263;-74
2021/04/30 11:24:50;;;;;;;13.75;6.62;;;;;;;20.59;34.36;99739.27;1687634;83;21299;-77
2021/04/30 11:27:24;;;;;;;9.05;4.78;;;;;;;20.56;34.23;99739.35;1730947;82;21708;-76
2021/04/30 11:29:53;;;;;;;13.88;5.28;;;;;;;20.61;34.32;99744.75;1719996;82;21161;-77
2021/04/30 11:32:26;;;;;;;14.33;4.50;;;;;;;20.72;34.52;99736.90;1688037;83;21266;-76
2021/04/30 11:35:00;;;;;;;15.10;5.95;;;;;;;20.80;34.39;99739.66;1732096;82;21177;-77
2021/04/30 11:37:31;;;;;;;13.03;3.77;;;;;;;20.87;34.34;99728.84;1727958;83;21303;-76